Time;durP1;ratioP1;P1;durP2;ratioP2;P2;SDS_P1;SDS_P2;PMS_P1;PMS_P2;Temp;Humidity;BMP_temperature;BMP_pressure;BME280_temperature;BME280_humidity;BME280_pressure;Samples;Min_cycle;Max_cycle;Signal;HPM_P1;HPM_P2
2022/01/08 00:01:56;;;;;;;;;;;;;;;2.47;100.00;99202.16;8385735;28;19974;-84
2022/01/08 00:05:58;;;;;;;;;;;;;;;2.45;100.00;99199.63;8372365;28;19921;-83
2022/01/08 00:10:00;;;;;;;;;;;;;;;2.50;100.00;99186.25;8396295;28;19920;-84
2022/01/08 00:14:04;;;;;;;;;;;;;;;2.53;100.00;99182.25;8384296;28;19924;-84
2022/01/08 00:18:05;;;;;;;;;;;;;;;2.42;100.00;99191.06;8365788;28;19958;-83
2022/01/08 00:22:08;;;;;;;;;;;;;;;2.52;100.00;99186.00;8393122;28;20392;-83
2022/01/08 00:26:13;;;;;;;;;;;;;;;2.49;100.00;99178.28;8372658;22;19979;-85
2022/01/08 00:30:14;;;;;;;;;;;;;;;2.56;100.00;99165.53;8348203;28;19925;-85
2022/01/08 00:34:45;;;;;;;;;;;;;;;2.52;100.00;99156.09;8359218;28;19920;-86
2022/01/08 00:38:48;;;;;;;;;;;;;;;2.45;100.00;99142.53;8342921;28;19936;-84
2022/01/08 00:42:50;;;;;;;;;;;;;;;2.42;100.00;99147.56;8324328;28;20277;-86
2022/01/08 00:46:51;;;;;;;;;;;;;;;2.27;100.00;99140.47;8323353;28;20035;-83
2022/01/08 00:50:53;;;;;;;;;;;;;;;2.14;100.00;99145.97;8366478;28;19924;-83
2022/01/08 00:55:23;;;;;;;;;;;;;;;2.13;100.00;99125.25;8352004;28;19974;-84
2022/01/08 00:59:25;;;;;;;;;;;;;;;2.24;100.00;99127.31;8347163;28;19929;-83
2022/01/08 01:03:26;;;;;;;;;;;;;;;2.25;100.00;99122.72;8356335;28;20011;-83
2022/01/08 01:07:28;;;;;;;;;;;;;;;2.27;100.00;99117.91;8341764;28;19921;-84
2022/01/08 01:11:29;;;;;;;;;;;;;;;2.31;100.00;99108.25;8337375;28;19920;-85
2022/01/08 01:15:30;;;;;;;;;;;;;;;2.44;100.00;99096.50;8324556;28;19931;-85
2022/01/08 01:19:55;;;;;;;;;;;;;;;2.43;100.00;99090.22;8341575;28;20358;-87
2022/01/08 01:24:18;;;;;;;;;;;;;;;2.48;100.00;99092.31;8323525;28;19924;-85
2022/01/08 01:50:24;;;;;;;;;;;;;;;2.64;100.00;99037.41;8287354;28;19929;-84
2022/01/08 01:54:30;;;;;;;;;;;;;;;2.67;100.00;99036.97;8276978;28;20286;-85
2022/01/08 01:58:31;;;;;;;;;;;;;;;2.61;100.00;99039.75;8269593;28;20362;-83
2022/01/08 02:02:32;;;;;;;;;;;;;;;2.65;100.00;99030.13;8286679;28;19956;-83
2022/01/08 02:06:34;;;;;;;;;;;;;;;2.69;100.00;99021.28;8289977;28;19925;-82
2022/01/08 02:10:35;;;;;;;;;;;;;;;2.70;100.00;99008.50;8292143;28;19922;-81
2022/01/08 02:14:37;;;;;;;;;;;;;;;2.66;100.00;98999.97;8293578;28;19922;-81
2022/01/08 02:18:39;;;;;;;;;;;;;;;2.63;100.00;99003.13;8284445;28;19967;-81
2022/01/08 02:22:41;;;;;;;;;;;;;;;2.59;100.00;99003.75;8307114;28;19921;-80
2022/01/08 02:26:43;;;;;;;;;;;;;;;2.49;100.00;99002.34;8302492;28;19921;-81
2022/01/08 02:30:44;;;;;;;;;;;;;;;2.57;100.00;98993.09;8300470;28;19930;-82
2022/01/08 02:34:47;;;;;;;;;;;;;;;2.62;100.00;99001.47;8299447;28;19921;-82
2022/01/08 02:38:50;;;;;;;;;;;;;;;2.57;100.00;98998.56;8246368;28;1291767;-81
2022/01/08 02:42:53;;;;;;;;;;;;;;;2.59;100.00;98992.88;8290459;28;19976;-81
2022/01/08 02:46:55;;;;;;;;;;;;;;;2.54;100.00;98993.53;8269892;28;21522;-80
2022/01/08 02:50:56;;;;;;;;;;;;;;;2.35;100.00;98998.06;8299064;28;19932;-80
2022/01/08 02:54:58;;;;;;;;;;;;;;;2.36;100.00;98993.44;8307769;28;19929;-80
2022/01/08 02:58:59;;;;;;;;;;;;;;;2.38;100.00;98977.72;8305598;28;19920;-81
2022/01/08 03:03:01;;;;;;;;;;;;;;;2.25;100.00;98990.34;8269070;28;19921;-80
2022/01/08 03:07:02;;;;;;;;;;;;;;;2.04;100.00;98988.75;8299650;28;19972;-80
2022/01/08 03:11:04;;;;;;;;;;;;;;;1.96;100.00;98999.03;8317088;28;19986;-81
2022/01/08 03:15:05;;;;;;;;;;;;;;;1.64;100.00;99001.63;8287883;28;19926;-81
2022/01/08 03:19:11;;;;;;;;;;;;;;;1.49;100.00;99006.47;8283454;28;19968;-83
2022/01/08 03:23:15;;;;;;;;;;;;;;;1.46;100.00;99004.13;8278843;28;19925;-83
2022/01/08 03:27:17;;;;;;;;;;;;;;;1.05;100.00;99006.03;8285415;28;19944;-84
2022/01/08 03:31:19;;;;;;;;;;;;;;;0.92;100.00;99022.31;8290189;28;20019;-83
2022/01/08 03:35:21;;;;;;;;;;;;;;;0.81;100.00;99018.34;8297213;28;19983;-84
2022/01/08 03:39:22;;;;;;;;;;;;;;;0.84;100.00;99009.78;8291128;28;19976;-84
2022/01/08 03:43:23;;;;;;;;;;;;;;;0.77;100.00;99008.91;8302308;28;20373;-80
2022/01/08 03:51:30;;;;;;;;;;;;;;;0.61;100.00;99039.16;8292121;28;19951;-81
2022/01/08 03:55:31;;;;;;;;;;;;;;;0.58;100.00;99042.28;8279142;28;20654;-80
2022/01/08 03:59:33;;;;;;;;;;;;;;;0.32;100.00;99043.84;8284026;28;20440;-78
2022/01/08 04:03:34;;;;;;;;;;;;;;;0.37;100.00;99052.22;8296885;28;19936;-80
2022/01/08 04:07:37;;;;;;;;;;;;;;;0.31;100.00;99047.59;8299851;28;20002;-79
2022/01/08 04:11:39;;;;;;;;;;;;;;;0.37;100.00;99054.09;8311196;28;20428;-80
2022/01/08 04:15:43;;;;;;;;;;;;;;;0.36;100.00;99049.72;8298184;28;19921;-81
2022/01/08 04:19:45;;;;;;;;;;;;;;;0.40;100.00;99049.09;8298000;28;19929;-80
2022/01/08 04:23:46;;;;;;;;;;;;;;;0.48;100.00;99042.66;8307801;28;19925;-79
2022/01/08 04:27:47;;;;;;;;;;;;;;;0.56;100.00;99055.19;8303774;28;19926;-79
2022/01/08 04:31:49;;;;;;;;;;;;;;;0.41;100.00;99058.03;8291318;28;20643;-79
2022/01/08 04:35:50;;;;;;;;;;;;;;;0.56;100.00;99071.44;8298042;28;19975;-80
2022/01/08 04:39:52;;;;;;;;;;;;;;;0.61;100.00;99090.66;8274432;28;19999;-81
2022/01/08 04:43:53;;;;;;;;;;;;;;;0.65;100.00;99100.06;8275029;28;19925;-81
2022/01/08 04:47:55;;;;;;;;;;;;;;;0.65;100.00;99119.03;8276599;28;19930;-81
2022/01/08 04:51:57;;;;;;;;;;;;;;;0.66;100.00;99143.25;8293081;28;20016;-82
2022/01/08 04:55:59;;;;;;;;;;;;;;;0.65;100.00;99157.00;8289131;28;19999;-80
2022/01/08 05:00:00;;;;;;;;;;;;;;;0.54;100.00;99166.56;8295306;28;19949;-82
2022/01/08 05:04:02;;;;;;;;;;;;;;;0.54;100.00;99179.28;8295943;28;19928;-79
2022/01/08 05:08:04;;;;;;;;;;;;;;;0.45;100.00;99192.16;8282067;28;20346;-81
2022/01/08 05:12:05;;;;;;;;;;;;;;;0.44;100.00;99204.00;8299332;28;19979;-82
2022/01/08 05:16:07;;;;;;;;;;;;;;;0.40;100.00;99206.28;8273623;28;19921;-83
2022/01/08 05:20:10;;;;;;;;;;;;;;;0.49;100.00;99222.41;8265546;28;20326;-83
2022/01/08 05:24:11;;;;;;;;;;;;;;;0.45;100.00;99221.97;8280917;28;19975;-82
2022/01/08 05:28:13;;;;;;;;;;;;;;;0.48;100.00;99231.56;8288613;28;19922;-81
2022/01/08 05:32:17;;;;;;;;;;;;;;;0.43;100.00;99249.25;8296661;28;19972;-79
2022/01/08 05:36:21;;;;;;;;;;;;;;;0.47;100.00;99273.25;8275257;28;20297;-80
2022/01/08 05:40:22;;;;;;;;;;;;;;;0.50;100.00;99281.00;8306027;28;19925;-82
2022/01/08 05:44:24;;;;;;;;;;;;;;;0.42;100.00;99290.97;8280673;28;19967;-81
2022/01/08 05:48:26;;;;;;;;;;;;;;;0.47;100.00;99300.38;8276378;28;19921;-81
2022/01/08 05:52:27;;;;;;;;;;;;;;;0.47;100.00;99313.91;8281981;28;19925;-79
2022/01/08 05:56:29;;;;;;;;;;;;;;;0.51;100.00;99323.34;8272591;28;19925;-80
2022/01/08 06:00:30;;;;;;;;;;;;;;;0.49;100.00;99336.25;8271850;28;19921;-82
2022/01/08 06:04:32;;;;;;;;;;;;;;;0.47;100.00;99349.16;8289595;28;19948;-82
2022/01/08 06:08:34;;;;;;;;;;;;;;;0.49;100.00;99358.78;8294863;28;19925;-80
2022/01/08 06:12:35;;;;;;;;;;;;;;;0.48;100.00;99342.69;8298830;28;19921;-82
2022/01/08 06:16:38;;;;;;;;;;;;;;;0.58;100.00;99363.03;8289571;28;19976;-81
2022/01/08 06:20:39;;;;;;;;;;;;;;;0.63;100.00;99373.28;8257076;28;19925;-82
2022/01/08 06:24:40;;;;;;;;;;;;;;;0.64;100.00;99383.94;8293027;28;19921;-82
2022/01/08 06:28:42;;;;;;;;;;;;;;;0.64;100.00;99388.50;8290907;28;19921;-81
2022/01/08 06:32:44;;;;;;;;;;;;;;;0.66;100.00;99397.31;8289390;28;19930;-82
2022/01/08 06:36:47;;;;;;;;;;;;;;;0.74;100.00;99405.28;8306651;28;19936;-83
2022/01/08 06:40:48;;;;;;;;;;;;;;;0.80;100.00;99412.63;8296557;28;19932;-83
2022/01/08 06:44:50;;;;;;;;;;;;;;;0.87;100.00;99420.84;8287182;28;19981;-81
2022/01/08 06:48:51;;;;;;;;;;;;;;;0.88;100.00;99420.63;8292738;28;19929;-82
2022/01/08 06:52:53;;;;;;;;;;;;;;;0.91;100.00;99432.97;8270846;28;19921;-82
2022/01/08 06:56:54;;;;;;;;;;;;;;;0.94;100.00;99432.56;8276008;28;19926;-82
2022/01/08 07:00:56;;;;;;;;;;;;;;;0.91;100.00;99441.94;8274516;28;19967;-83
2022/01/08 07:04:59;;;;;;;;;;;;;;;0.86;100.00;99446.25;8309881;28;19925;-83
2022/01/08 07:09:00;;;;;;;;;;;;;;;0.75;100.00;99461.22;8309981;28;19971;-81
2022/01/08 07:13:02;;;;;;;;;;;;;;;0.66;100.00;99463.22;8305125;28;20448;-82
2022/01/08 07:17:04;;;;;;;;;;;;;;;0.60;100.00;99464.00;8307562;28;19922;-82
2022/01/08 07:21:05;;;;;;;;;;;;;;;0.48;100.00;99470.97;8311584;28;19948;-82
2022/01/08 07:25:07;;;;;;;;;;;;;;;0.36;100.00;99486.91;8287729;28;20302;-83
2022/01/08 07:29:08;;;;;;;;;;;;;;;0.28;100.00;99495.13;8304124;28;19987;-82
2022/01/08 07:33:09;;;;;;;;;;;;;;;0.22;100.00;99510.28;8284871;28;20012;-84
2022/01/08 07:37:11;;;;;;;;;;;;;;;0.20;100.00;99522.34;8305372;28;20302;-83
2022/01/08 07:41:12;;;;;;;;;;;;;;;0.31;100.00;99530.00;8288763;28;19967;-83
2022/01/08 07:45:14;;;;;;;;;;;;;;;0.41;100.00;99544.06;8281319;28;20508;-81
2022/01/08 07:49:16;;;;;;;;;;;;;;;0.56;100.00;99548.63;8279871;28;19971;-82
2022/01/08 07:53:21;;;;;;;;;;;;;;;0.68;100.00;99558.78;8279728;28;20449;-82
2022/01/08 07:57:25;;;;;;;;;;;;;;;0.78;100.00;99563.88;8292621;28;20044;-83
2022/01/08 08:01:26;;;;;;;;;;;;;;;0.87;100.00;99572.75;8294063;28;19951;-82
2022/01/08 08:05:30;;;;;;;;;;;;;;;0.94;100.00;99572.81;8292891;28;19921;-83
2022/01/08 08:09:31;;;;;;;;;;;;;;;0.97;100.00;99578.69;8296001;28;19926;-84
2022/01/08 08:13:32;;;;;;;;;;;;;;;1.14;100.00;99584.69;8298409;28;19972;-81
2022/01/08 08:17:35;;;;;;;;;;;;;;;1.24;100.00;99579.78;8296273;28;20346;-82
2022/01/08 08:21:37;;;;;;;;;;;;;;;1.31;100.00;99586.13;8280773;28;20653;-80
2022/01/08 08:25:39;;;;;;;;;;;;;;;1.40;100.00;99583.25;8302279;28;19921;-82
2022/01/08 08:29:41;;;;;;;;;;;;;;;1.39;100.00;99592.44;8298653;28;19929;-81
2022/01/08 08:33:42;;;;;;;;;;;;;;;1.43;100.00;99593.72;8282928;28;19921;-80
2022/01/08 08:37:43;;;;;;;;;;;;;;;1.48;100.00;99597.50;8292564;28;19932;-81
2022/01/08 08:41:45;;;;;;;;;;;;;;;1.55;100.00;99603.03;8305254;28;19925;-80
2022/01/08 08:45:46;;;;;;;;;;;;;;;1.54;100.00;99613.03;8311157;28;20330;-80
2022/01/08 08:49:48;;;;;;;;;;;;;;;1.56;100.00;99610.97;8310187;28;19968;-80
2022/01/08 08:53:49;;;;;;;;;;;;;;;1.64;100.00;99615.41;8267287;28;19929;-80
2022/01/08 08:57:51;;;;;;;;;;;;;;;1.68;100.00;99619.41;8300112;28;19921;-80
2022/01/08 09:01:52;;;;;;;;;;;;;;;1.68;100.00;99629.44;8274070;28;19921;-80
2022/01/08 09:05:53;;;;;;;;;;;;;;;1.72;100.00;99625.28;8277945;28;19925;-78
2022/01/08 09:09:55;;;;;;;;;;;;;;;1.79;100.00;99635.19;8293868;28;19929;-81
2022/01/08 09:13:56;;;;;;;;;;;;;;;1.80;100.00;99631.41;8298952;28;19925;-79
2022/01/08 09:17:58;;;;;;;;;;;;;;;1.73;100.00;99637.84;8303541;28;19925;-81
2022/01/08 09:22:01;;;;;;;;;;;;;;;1.72;100.00;99636.97;8302992;28;20409;-79
2022/01/08 09:26:03;;;;;;;;;;;;;;;1.81;100.00;99641.25;8290945;28;19925;-79
2022/01/08 09:30:06;;;;;;;;;;;;;;;1.98;100.00;99640.94;8280691;28;19984;-80
2022/01/08 09:34:08;;;;;;;;;;;;;;;2.01;100.00;99651.44;8311350;28;19992;-80
2022/01/08 09:38:09;;;;;;;;;;;;;;;2.09;100.00;99654.00;8304653;28;20004;-80
2022/01/08 09:42:25;;;;;;;;;;;;;;;2.13;100.00;99654.44;8318385;28;19932;-82
2022/01/08 09:46:27;;;;;;;;;;;;;;;2.11;100.00;99660.06;8296026;28;20331;-81
2022/01/08 09:50:29;;;;;;;;;;;;;;;2.13;100.00;99662.59;8297797;28;19921;-83
2022/01/08 09:59:33;;;;;;;;;;;;;;;2.28;100.00;99658.72;8197186;28;19926;-84
2022/01/08 10:03:35;;;;;;;;;;;;;;;2.35;100.00;99658.78;8162738;28;19961;-87
2022/01/08 10:07:37;;;;;;;;;;;;;;;2.52;100.00;99653.81;8197446;28;19926;-83
2022/01/08 10:11:47;;;;;;;;;;;;;;;2.66;100.00;99647.41;8197201;28;20028;-81
2022/01/08 10:20:28;;;;;;;;;;;;;;;2.95;100.00;99648.16;8194085;28;19926;-83
2022/01/08 10:24:31;;;;;;;;;;;;;;;3.00;100.00;99647.53;8177537;28;19985;-80
2022/01/08 10:28:36;;;;;;;;;;;;;;;3.04;100.00;99636.03;8169290;28;19933;-81
2022/01/08 10:32:37;;;;;;;;;;;;;;;3.06;100.00;99647.53;8186552;28;20424;-80
2022/01/08 10:36:40;;;;;;;;;;;;;;;2.92;100.00;99637.69;8199403;28;19926;-79
2022/01/08 10:40:41;;;;;;;;;;;;;;;2.85;100.00;99637.63;8175290;28;20344;-79
2022/01/08 10:44:47;;;;;;;;;;;;;;;2.96;100.00;99639.78;8198241;28;20517;-79
2022/01/08 10:48:50;;;;;;;;;;;;;;;3.17;100.00;99629.78;8198011;28;20444;-79
2022/01/08 10:52:51;;;;;;;;;;;;;;;3.14;100.00;99628.31;8157509;28;20376;-81
2022/01/08 10:56:59;;;;;;;;;;;;;;;3.29;100.00;99619.94;8195262;28;19930;-82
2022/01/08 11:01:01;;;;;;;;;;;;;;;3.38;100.00;99618.69;8197423;28;19923;-80
2022/01/08 11:05:04;;;;;;;;;;;;;;;3.55;100.00;99612.88;8198467;28;19929;-81
2022/01/08 11:09:05;;;;;;;;;;;;;;;3.60;99.58;99608.47;8177399;28;19926;-80
2022/01/08 11:13:09;;;;;;;;;;;;;;;3.32;96.83;99597.75;8188434;28;20600;-80
2022/01/08 11:17:15;;;;;;;;;;;;;;;3.45;97.72;99596.94;8181816;28;19934;-81
2022/01/08 11:21:17;;;;;;;;;;;;;;;3.43;97.42;99585.41;8195135;28;19988;-81
2022/01/08 11:25:27;;;;;;;;;;;;;;;3.41;96.88;99582.03;8184686;28;20355;-81
2022/01/08 11:29:35;;;;;;;;;;;;;;;3.54;97.77;99578.47;8179820;28;19923;-81
2022/01/08 11:33:41;;;;;;;;;;;;;;;3.59;97.16;99579.53;8175837;28;19926;-80
2022/01/08 11:37:46;;;;;;;;;;;;;;;3.62;95.38;99579.09;8190194;28;19926;-79
2022/01/08 11:41:48;;;;;;;;;;;;;;;3.64;96.13;99573.47;8185684;28;19929;-80
2022/01/08 11:45:54;;;;;;;;;;;;;;;3.59;93.73;99570.50;8191704;28;19932;-79
2022/01/08 11:49:58;;;;;;;;;;;;;;;3.53;95.48;99564.03;8192366;28;19926;-79
2022/01/08 11:53:59;;;;;;;;;;;;;;;3.49;94.52;99554.59;8178753;28;20346;-79
2022/01/08 11:58:22;;;;;;;;;;;;;;;3.43;93.36;99544.56;8194128;28;19973;-79
2022/01/08 12:02:38;;;;;;;;;;;;;;;3.45;92.73;99550.63;8192629;28;19922;-80
2022/01/08 12:06:41;;;;;;;;;;;;;;;3.52;94.09;99537.84;8167519;28;20029;-80
2022/01/08 12:11:01;;;;;;;;;;;;;;;3.50;91.41;99528.19;8169897;28;19974;-79
2022/01/08 12:15:03;;;;;;;;;;;;;;;3.46;92.84;99507.88;8178745;28;19927;-79
2022/01/08 12:19:06;;;;;;;;;;;;;;;3.46;92.17;99508.72;8192683;28;19922;-78
2022/01/08 12:23:26;;;;;;;;;;;;;;;3.62;91.74;99491.06;8177280;28;19927;-78
2022/01/08 12:27:34;;;;;;;;;;;;;;;3.88;89.99;99469.22;8193428;28;20415;-80
2022/01/08 12:31:45;;;;;;;;;;;;;;;4.29;89.81;99461.72;8190357;28;20009;-79
2022/01/08 12:35:46;;;;;;;;;;;;;;;4.87;85.31;99461.53;8177892;28;19926;-79
2022/01/08 12:39:49;;;;;;;;;;;;;;;4.87;84.46;99456.09;8172487;28;19922;-80
2022/01/08 12:43:51;;;;;;;;;;;;;;;4.68;85.71;99449.72;8192489;28;19966;-81
2022/01/08 12:47:55;;;;;;;;;;;;;;;4.55;84.18;99430.69;8184454;28;19969;-81
2022/01/08 12:52:03;;;;;;;;;;;;;;;4.52;85.47;99432.00;8191678;28;19922;-81
2022/01/08 12:56:05;;;;;;;;;;;;;;;4.26;83.97;99418.50;8192009;28;20052;-80
2022/01/08 13:00:08;;;;;;;;;;;;;;;4.14;85.48;99412.91;8177650;28;19923;-82
2022/01/08 13:04:15;;;;;;;;;;;;;;;3.83;84.68;99395.41;8193976;28;19926;-81
2022/01/08 13:08:22;;;;;;;;;;;;;;;3.68;85.19;99389.41;8194196;28;19976;-81
2022/01/08 13:12:24;;;;;;;;;;;;;;;3.49;85.62;99380.25;8197167;28;19981;-80
2022/01/08 13:16:28;;;;;;;;;;;;;;;3.42;85.91;99363.94;8181990;28;19923;-80
2022/01/08 13:20:29;;;;;;;;;;;;;;;3.42;85.82;99357.63;8164360;28;19953;-80
2022/01/08 13:24:40;;;;;;;;;;;;;;;3.42;86.77;99344.00;8188219;28;19926;-81
2022/01/08 13:28:48;;;;;;;;;;;;;;;3.50;86.51;99334.78;8179918;28;19969;-81
2022/01/08 13:33:04;;;;;;;;;;;;;;;3.61;84.97;99325.94;8167719;28;19922;-80
2022/01/08 13:37:06;;;;;;;;;;;;;;;3.69;85.41;99319.38;8182070;28;19929;-81
2022/01/08 13:41:08;;;;;;;;;;;;;;;3.69;85.49;99324.84;8182817;28;19977;-79
2022/01/08 13:45:13;;;;;;;;;;;;;;;3.55;84.58;99326.81;8188334;28;19923;-80
2022/01/08 13:49:14;;;;;;;;;;;;;;;3.61;86.86;99334.13;8195289;28;19926;-80
2022/01/08 13:53:16;;;;;;;;;;;;;;;3.57;86.38;99336.44;8186946;28;20311;-79
2022/01/08 13:57:22;;;;;;;;;;;;;;;3.53;86.74;99318.84;8194681;28;20470;-79
2022/01/08 14:01:36;;;;;;;;;;;;;;;3.56;87.73;99312.13;8193627;28;19926;-80
2022/01/08 14:05:39;;;;;;;;;;;;;;;3.52;86.95;99319.91;8181044;28;19926;-79
2022/01/08 14:09:41;;;;;;;;;;;;;;;3.46;87.06;99309.03;8194991;28;19937;-79
2022/01/08 14:13:46;;;;;;;;;;;;;;;3.54;88.34;99292.41;8191296;28;20008;-79
2022/01/08 14:17:47;;;;;;;;;;;;;;;3.56;88.10;99282.16;8178648;28;19922;-80
2022/01/08 14:21:53;;;;;;;;;;;;;;;3.46;87.96;99263.56;8203530;28;20380;-80
2022/01/08 14:25:56;;;;;;;;;;;;;;;3.55;89.91;99254.09;8201880;28;19935;-77
2022/01/08 14:30:04;;;;;;;;;;;;;;;3.46;89.76;99228.16;8183441;28;20009;-79
2022/01/08 14:34:08;;;;;;;;;;;;;;;3.32;90.46;99232.81;8202693;28;19926;-78
2022/01/08 14:38:09;;;;;;;;;;;;;;;3.27;89.98;99234.53;8175007;28;19934;-79
2022/01/08 14:42:12;;;;;;;;;;;;;;;3.12;90.92;99204.84;8192070;28;19937;-79
2022/01/08 14:46:14;;;;;;;;;;;;;;;3.08;91.21;99196.28;8179031;28;19930;-78
2022/01/08 14:50:17;;;;;;;;;;;;;;;3.07;91.65;99185.63;8173157;28;19949;-79
2022/01/08 14:54:29;;;;;;;;;;;;;;;2.96;92.04;99170.81;8179385;28;19981;-79
2022/01/08 14:58:31;;;;;;;;;;;;;;;2.95;93.32;99171.88;8188358;28;19931;-78
2022/01/08 15:02:33;;;;;;;;;;;;;;;2.85;93.53;99157.88;8199611;28;19930;-79
2022/01/08 15:06:35;;;;;;;;;;;;;;;2.81;92.87;99146.59;8203942;28;19922;-78
2022/01/08 15:10:36;;;;;;;;;;;;;;;2.85;92.90;99134.19;8193924;28;19922;-79
2022/01/08 15:14:38;;;;;;;;;;;;;;;2.80;92.74;99127.78;8200761;28;19926;-80
2022/01/08 15:18:40;;;;;;;;;;;;;;;2.84;92.34;99123.56;8209078;28;19926;-79
2022/01/08 15:22:41;;;;;;;;;;;;;;;2.74;91.90;99113.97;8205782;28;20874;-78
2022/01/08 15:26:43;;;;;;;;;;;;;;;2.72;92.80;99104.34;8197646;28;19937;-78
2022/01/08 15:30:44;;;;;;;;;;;;;;;2.75;93.28;99103.91;8204337;28;19986;-79
2022/01/08 15:34:46;;;;;;;;;;;;;;;2.74;93.60;99100.38;8183457;28;19935;-79
2022/01/08 15:38:47;;;;;;;;;;;;;;;2.62;95.20;99085.78;8199325;28;20372;-79
2022/01/08 15:42:49;;;;;;;;;;;;;;;2.45;96.77;99071.81;8197812;28;19942;-79
2022/01/08 15:46:50;;;;;;;;;;;;;;;2.49;97.65;99064.06;8183383;28;20536;-80
2022/01/08 15:50:52;;;;;;;;;;;;;;;2.32;100.00;99052.00;8197722;28;19926;-79
2022/01/08 15:54:53;;;;;;;;;;;;;;;2.23;100.00;99035.94;8183237;28;19994;-80
2022/01/08 15:58:55;;;;;;;;;;;;;;;2.22;100.00;99025.28;8188821;28;19989;-79
2022/01/08 16:02:56;;;;;;;;;;;;;;;2.22;100.00;99028.81;8198707;28;19949;-79
2022/01/08 16:06:58;;;;;;;;;;;;;;;2.17;100.00;99020.50;8197195;28;20233;-79
2022/01/08 16:10:59;;;;;;;;;;;;;;;2.15;100.00;99003.56;8197616;28;19927;-79
2022/01/08 16:15:01;;;;;;;;;;;;;;;2.03;100.00;98997.13;8199750;28;20054;-79
2022/01/08 16:19:02;;;;;;;;;;;;;;;2.08;100.00;98982.88;8198621;28;19923;-79
2022/01/08 16:23:04;;;;;;;;;;;;;;;2.10;100.00;98964.50;8199014;28;19926;-80
2022/01/08 16:27:06;;;;;;;;;;;;;;;2.17;100.00;98965.28;8196455;28;19949;-79
2022/01/08 16:31:08;;;;;;;;;;;;;;;2.20;100.00;98948.53;8195371;28;19973;-80
2022/01/08 16:35:10;;;;;;;;;;;;;;;2.25;100.00;98925.09;8206042;28;19923;-78
2022/01/08 16:39:14;;;;;;;;;;;;;;;2.32;100.00;98913.34;8200246;28;19937;-79
2022/01/08 16:43:17;;;;;;;;;;;;;;;2.35;100.00;98908.34;8198543;28;19973;-79
2022/01/08 16:47:20;;;;;;;;;;;;;;;2.42;100.00;98902.84;8195710;28;19957;-78
2022/01/08 16:51:22;;;;;;;;;;;;;;;2.45;99.99;98895.06;8194068;28;20025;-79
2022/01/08 16:55:29;;;;;;;;;;;;;;;2.42;98.14;98887.34;8190248;28;19950;-78
2022/01/08 16:59:31;;;;;;;;;;;;;;;2.52;97.75;98875.97;8172624;28;19923;-78
2022/01/08 17:03:32;;;;;;;;;;;;;;;2.66;96.66;98872.13;8197241;28;19926;-79
2022/01/08 17:07:34;;;;;;;;;;;;;;;2.61;93.27;98852.06;8181328;28;19926;-80
2022/01/08 17:11:36;;;;;;;;;;;;;;;2.80;93.29;98853.81;8195563;28;19923;-78
2022/01/08 17:15:38;;;;;;;;;;;;;;;2.72;90.32;98827.69;8200163;28;19958;-79
2022/01/08 17:19:40;;;;;;;;;;;;;;;2.85;91.47;98810.41;8194422;28;19946;-78
2022/01/08 17:23:41;;;;;;;;;;;;;;;2.89;90.92;98787.16;8177993;28;19958;-78
2022/01/08 17:27:43;;;;;;;;;;;;;;;2.80;88.81;98768.63;8191250;28;19953;-78
2022/01/08 17:31:44;;;;;;;;;;;;;;;2.94;90.40;98759.25;8183200;28;19930;-78
2022/01/08 17:35:46;;;;;;;;;;;;;;;2.87;88.90;98745.72;8214220;28;19961;-79
2022/01/08 17:39:47;;;;;;;;;;;;;;;2.87;89.52;98739.47;8200359;28;19945;-80
2022/01/08 17:43:49;;;;;;;;;;;;;;;2.86;88.87;98735.91;8203117;28;20546;-79
2022/01/08 17:47:50;;;;;;;;;;;;;;;2.85;87.56;98708.91;8200142;28;19922;-79
2022/01/08 17:51:52;;;;;;;;;;;;;;;2.85;87.99;98704.28;8181376;28;19927;-79
2022/01/08 17:55:54;;;;;;;;;;;;;;;2.86;87.54;98695.09;8174008;28;19930;-78
2022/01/08 17:59:55;;;;;;;;;;;;;;;2.87;87.29;98680.41;8206478;28;19972;-80
2022/01/08 18:03:58;;;;;;;;;;;;;;;2.86;87.45;98659.72;8185826;28;20026;-79
2022/01/08 18:08:00;;;;;;;;;;;;;;;2.84;86.10;98653.66;8192062;28;20451;-80
2022/01/08 18:12:02;;;;;;;;;;;;;;;2.74;86.76;98645.22;8191149;28;20426;-79
2022/01/08 18:16:03;;;;;;;;;;;;;;;2.81;87.91;98621.47;8194950;28;19930;-79
2022/01/08 18:20:06;;;;;;;;;;;;;;;2.80;88.29;98619.00;8195365;28;19926;-79
2022/01/08 18:24:07;;;;;;;;;;;;;;;2.72;87.61;98612.81;8200795;28;19926;-79
2022/01/08 18:28:12;;;;;;;;;;;;;;;2.83;88.25;98600.31;8188458;28;20619;-80
2022/01/08 18:32:13;;;;;;;;;;;;;;;2.80;88.70;98600.78;8184654;28;19965;-78
2022/01/08 18:36:15;;;;;;;;;;;;;;;2.89;88.45;98587.69;8194039;28;19922;-80
2022/01/08 18:40:19;;;;;;;;;;;;;;;2.87;88.54;98585.19;8168511;28;19926;-79
2022/01/08 18:44:21;;;;;;;;;;;;;;;2.83;90.10;98566.84;8194595;28;19932;-79
2022/01/08 18:48:23;;;;;;;;;;;;;;;2.86;89.40;98566.41;8201581;28;20025;-79
2022/01/08 18:52:25;;;;;;;;;;;;;;;2.93;89.54;98548.91;8196709;28;19926;-79
2022/01/08 18:56:28;;;;;;;;;;;;;;;2.87;88.97;98544.38;8188144;28;19922;-79
2022/01/08 19:00:47;;;;;;;;;;;;;;;2.95;91.20;98521.47;8170478;28;19922;-79
2022/01/08 19:04:49;;;;;;;;;;;;;;;2.97;91.10;98516.59;8179311;28;20379;-78
2022/01/08 19:08:50;;;;;;;;;;;;;;;2.86;91.70;98493.75;8193070;28;19973;-78
2022/01/08 19:12:51;;;;;;;;;;;;;;;2.94;91.10;98479.81;8199947;28;20343;-80
2022/01/08 19:16:53;;;;;;;;;;;;;;;2.95;91.81;98475.22;8204671;28;19945;-79
2022/01/08 19:20:54;;;;;;;;;;;;;;;3.00;91.76;98455.44;8195026;28;19926;-78
2022/01/08 19:24:56;;;;;;;;;;;;;;;3.02;91.68;98445.16;8204032;28;19996;-80
2022/01/08 19:29:02;;;;;;;;;;;;;;;3.05;90.89;98434.63;8194409;28;19945;-80
2022/01/08 19:33:05;;;;;;;;;;;;;;;3.11;91.05;98420.09;8207883;28;19998;-79
2022/01/08 19:37:06;;;;;;;;;;;;;;;3.03;91.71;98393.22;8211319;28;19926;-78
2022/01/08 19:41:07;;;;;;;;;;;;;;;3.06;91.56;98379.13;8191984;28;19927;-79
2022/01/08 19:45:09;;;;;;;;;;;;;;;3.16;91.88;98371.22;8198593;28;19922;-79
2022/01/08 19:49:10;;;;;;;;;;;;;;;3.22;91.27;98353.13;8201814;28;19923;-79
2022/01/08 19:53:12;;;;;;;;;;;;;;;3.25;90.83;98333.56;8203356;28;19926;-79
2022/01/08 19:57:14;;;;;;;;;;;;;;;3.19;92.00;98321.75;8181446;28;19930;-79
2022/01/08 20:01:16;;;;;;;;;;;;;;;3.21;92.01;98299.72;8194257;28;19973;-81
2022/01/08 20:05:17;;;;;;;;;;;;;;;3.08;93.76;98305.44;8195881;28;20000;-78
2022/01/08 20:09:20;;;;;;;;;;;;;;;3.08;94.37;98286.38;8202945;28;20311;-79
2022/01/08 20:13:22;;;;;;;;;;;;;;;3.17;94.51;98274.88;8170916;28;19930;-79
2022/01/08 20:17:23;;;;;;;;;;;;;;;3.13;94.15;98268.25;8183139;28;20505;-80
2022/01/08 20:21:27;;;;;;;;;;;;;;;3.27;93.90;98254.38;8199933;28;19961;-80
2022/01/08 20:25:31;;;;;;;;;;;;;;;3.27;94.33;98238.03;8196675;28;19934;-80
2022/01/08 20:29:33;;;;;;;;;;;;;;;3.32;94.23;98219.91;8191605;28;19931;-80
2022/01/08 20:33:35;;;;;;;;;;;;;;;3.38;93.61;98207.22;8197211;28;19926;-79
2022/01/08 20:37:37;;;;;;;;;;;;;;;3.40;92.99;98196.94;8187092;28;20672;-79
2022/01/08 20:41:38;;;;;;;;;;;;;;;3.46;91.91;98176.06;8178607;28;19933;-80
2022/01/08 20:45:41;;;;;;;;;;;;;;;3.59;91.66;98165.69;8184552;28;19927;-79
2022/01/08 20:49:42;;;;;;;;;;;;;;;3.64;90.51;98137.72;8161334;28;19932;-79
2022/01/08 20:53:44;;;;;;;;;;;;;;;3.76;90.12;98113.97;8202811;28;20360;-78
2022/01/08 20:57:46;;;;;;;;;;;;;;;3.85;89.86;98122.56;8189931;28;19949;-80
2022/01/08 21:01:47;;;;;;;;;;;;;;;3.88;89.41;98100.25;8189221;28;19971;-79
2022/01/08 21:05:49;;;;;;;;;;;;;;;3.87;89.06;98082.28;8201684;28;19977;-82
2022/01/08 21:09:50;;;;;;;;;;;;;;;3.96;90.38;98083.50;8196654;28;19970;-79
2022/01/08 21:13:52;;;;;;;;;;;;;;;4.01;91.88;98060.94;8189123;28;19926;-80
2022/01/08 21:17:53;;;;;;;;;;;;;;;4.00;92.95;98046.47;8203713;28;20000;-79
2022/01/08 21:21:55;;;;;;;;;;;;;;;4.02;92.97;98010.81;8203769;28;20026;-80
2022/01/08 21:25:57;;;;;;;;;;;;;;;3.89;94.98;98003.81;8208067;28;20530;-82
2022/01/08 21:29:59;;;;;;;;;;;;;;;3.90;96.34;97994.56;8164503;28;19933;-81
2022/01/08 21:34:01;;;;;;;;;;;;;;;3.84;97.86;97968.34;8180630;28;20434;-81
2022/01/08 21:38:03;;;;;;;;;;;;;;;3.73;98.78;97959.19;8196820;28;19993;-81
2022/01/08 21:42:05;;;;;;;;;;;;;;;3.81;100.00;97941.59;8178543;28;20048;-81
2022/01/08 21:46:07;;;;;;;;;;;;;;;3.80;100.00;97938.00;8167564;28;19957;-82